createdAt,value
2022-09-24T00:01:43.315Z,100634.91
2022-09-24T00:04:12.840Z,100632.87
2022-09-24T00:06:47.033Z,100632.55
2022-09-24T00:09:19.607Z,100632.64
2022-09-24T00:11:52.486Z,100631.23
2022-09-24T00:14:20.661Z,100629.48
2022-09-24T00:16:48.439Z,100626.86
2022-09-24T00:19:16.288Z,100624.21
2022-09-24T00:21:44.081Z,100623.94
2022-09-24T00:24:40.384Z,100625.25
2022-09-24T00:27:08.276Z,100627.58
2022-09-24T00:29:36.556Z,100623.11
2022-09-24T00:32:06.107Z,100622.94
2022-09-24T00:34:34.447Z,100621.74
2022-09-24T00:37:02.489Z,100623.23
2022-09-24T00:39:30.444Z,100621.02
2022-09-24T00:41:58.311Z,100620.51
2022-09-24T00:44:41.469Z,100618.44
2022-09-24T00:47:39.101Z,100620.07
2022-09-24T00:50:18.335Z,100619.00
2022-09-24T00:52:53.261Z,100617.64
2022-09-24T00:55:23.831Z,100614.45
2022-09-24T00:57:56.928Z,100613.21
2022-09-24T01:00:25.217Z,100610.98
2022-09-24T01:03:01.009Z,100607.61
2022-09-24T01:05:29.587Z,100607.06
2022-09-24T01:07:58.382Z,100606.21
2022-09-24T01:10:52.871Z,100608.03
2022-09-24T01:13:49.811Z,100607.66
2022-09-24T01:16:54.236Z,100606.30
2022-09-24T01:19:49.029Z,100601.80
2022-09-24T01:22:34.713Z,100600.33
2022-09-24T01:25:16.916Z,100594.02
2022-09-24T01:28:26.457Z,100594.45
2022-09-24T01:31:01.165Z,100593.52
2022-09-24T01:33:32.839Z,100591.45
2022-09-24T01:36:08.378Z,100588.38
2022-09-24T01:38:39.364Z,100588.55
2022-09-24T01:41:09.544Z,100586.04
2022-09-24T01:43:39.454Z,100585.91
2022-09-24T01:46:08.296Z,100584.20
2022-09-24T01:48:37.772Z,100582.95
2022-09-24T01:51:15.455Z,100582.47
2022-09-24T01:53:57.746Z,100582.18
2022-09-24T01:56:42.507Z,100583.96
2022-09-24T01:59:13.110Z,100584.26
2022-09-24T02:01:50.447Z,100585.39
2022-09-24T02:04:20.919Z,100581.80
2022-09-24T02:07:12.110Z,100582.59
2022-09-24T02:09:43.078Z,100583.20
2022-09-24T02:12:17.300Z,100583.52
2022-09-24T02:14:54.816Z,100580.92
2022-09-24T02:17:26.024Z,100583.39
2022-09-24T02:19:56.444Z,100577.73
2022-09-24T02:22:25.334Z,100574.47
2022-09-24T02:24:57.590Z,100574.71
2022-09-24T02:27:29.414Z,100576.32
2022-09-24T02:29:59.002Z,100574.77
2022-09-24T02:32:30.722Z,100577.62
2022-09-24T02:35:03.234Z,100581.25
2022-09-24T02:37:35.682Z,100576.26
2022-09-24T02:40:07.183Z,100574.73
2022-09-24T02:42:35.479Z,100573.60
2022-09-24T02:45:04.771Z,100577.31
2022-09-24T02:47:33.312Z,100574.33
2022-09-24T02:50:01.106Z,100574.60
2022-09-24T02:52:29.249Z,100575.59
2022-09-24T02:54:56.987Z,100573.58
2022-09-24T02:57:24.703Z,100572.45
2022-09-24T02:59:52.422Z,100573.12
2022-09-24T03:02:20.277Z,100568.20
2022-09-24T03:04:48.028Z,100567.02
2022-09-24T03:07:15.812Z,100563.84
2022-09-24T03:09:43.527Z,100561.96
2022-09-24T03:12:11.603Z,100564.23
2022-09-24T03:14:39.302Z,100567.33
2022-09-24T03:17:07.059Z,100562.70
2022-09-24T03:19:34.804Z,100561.45
2022-09-24T03:22:02.560Z,100566.31
2022-09-24T03:24:30.324Z,100568.41
2022-09-24T03:26:58.381Z,100565.48
2022-09-24T03:29:52.543Z,100558.91
2022-09-24T03:32:20.288Z,100562.29
2022-09-24T03:34:48.083Z,100564.61
2022-09-24T03:37:15.807Z,100563.89
2022-09-24T03:39:43.575Z,100564.70
2022-09-24T03:42:11.387Z,100569.04
2022-09-24T03:44:39.180Z,100572.20
2022-09-24T03:47:06.920Z,100570.48
2022-09-24T03:49:34.679Z,100570.63
2022-09-24T03:52:02.540Z,100567.92
2022-09-24T03:54:30.314Z,100563.66
2022-09-24T03:56:58.026Z,100565.29
2022-09-24T03:59:25.815Z,100567.61
2022-09-24T04:01:53.549Z,100570.48
2022-09-24T04:04:21.304Z,100570.92
2022-09-24T04:06:49.069Z,100568.90
2022-09-24T04:09:16.788Z,100569.61
2022-09-24T04:11:45.026Z,100569.59
2022-09-24T04:14:12.819Z,100569.73
2022-09-24T04:16:40.647Z,100572.56
2022-09-24T04:19:08.556Z,100571.86
2022-09-24T04:21:36.351Z,100569.66
2022-09-24T04:24:05.440Z,100568.17
2022-09-24T04:26:33.294Z,100564.82
2022-09-24T04:29:01.286Z,100569.27
2022-09-24T04:31:29.168Z,100570.82
2022-09-24T04:33:57.057Z,100567.84
2022-09-24T04:36:25.244Z,100568.05
2022-09-24T04:38:53.005Z,100568.45
2022-09-24T04:41:21.142Z,100571.83
2022-09-24T04:43:49.439Z,100572.91
2022-09-24T04:46:19.313Z,100573.13
2022-09-24T04:48:47.232Z,100571.83
2022-09-24T04:51:16.970Z,100573.09
2022-09-24T04:53:47.993Z,100573.12
2022-09-24T04:56:15.815Z,100575.71
2022-09-24T04:58:43.751Z,100575.42
2022-09-24T05:01:13.579Z,100568.62
2022-09-24T05:03:41.576Z,100561.84
2022-09-24T05:06:09.636Z,100559.38
2022-09-24T05:08:37.436Z,100556.70
2022-09-24T05:11:05.455Z,100558.13
2022-09-24T05:13:33.288Z,100555.34
2022-09-24T05:16:02.033Z,100557.33
2022-09-24T05:18:29.889Z,100555.60
2022-09-24T05:20:58.065Z,100559.96
2022-09-24T05:23:25.798Z,100554.17
2022-09-24T05:26:12.281Z,100556.87
2022-09-24T05:28:40.683Z,100553.45
2022-09-24T05:31:09.268Z,100552.98
2022-09-24T05:33:37.732Z,100554.84
2022-09-24T05:36:05.709Z,100554.02
2022-09-24T05:38:33.864Z,100558.27
2022-09-24T05:41:01.734Z,100555.70
2022-09-24T05:43:31.607Z,100549.94
2022-09-24T05:45:59.333Z,100548.09
2022-09-24T05:48:27.131Z,100548.31
2022-09-24T05:50:55.551Z,100551.77
2022-09-24T05:53:23.990Z,100550.02
2022-09-24T05:55:51.845Z,100552.46
2022-09-24T05:58:19.684Z,100553.25
2022-09-24T06:00:47.647Z,100555.71
2022-09-24T06:03:17.307Z,100562.06
2022-09-24T06:05:50.242Z,100560.98
2022-09-24T06:08:19.951Z,100563.75
2022-09-24T06:10:48.328Z,100562.94
2022-09-24T06:13:21.011Z,100565.02
2022-09-24T06:15:48.911Z,100562.91
2022-09-24T06:18:17.041Z,100562.81
2022-09-24T06:20:47.083Z,100562.16
2022-09-24T06:23:15.061Z,100561.14
2022-09-24T06:25:42.782Z,100561.31
2022-09-24T06:28:10.560Z,100555.30
2022-09-24T06:30:39.458Z,100557.94
2022-09-24T06:33:10.366Z,100555.80
2022-09-24T06:35:40.141Z,100553.36
2022-09-24T06:38:11.248Z,100553.73
2022-09-24T06:40:40.125Z,100553.23
2022-09-24T06:43:10.963Z,100556.44
2022-09-24T06:45:38.711Z,100560.66
2022-09-24T06:48:06.849Z,100559.61
2022-09-24T06:50:35.605Z,100560.95
2022-09-24T06:53:06.663Z,100557.48
2022-09-24T06:55:36.047Z,100558.97
2022-09-24T06:58:12.806Z,100560.42
2022-09-24T07:00:41.643Z,100558.14
2022-09-24T07:03:15.490Z,100557.04
2022-09-24T07:05:43.867Z,100555.58
2022-09-24T07:08:12.137Z,100558.38
2022-09-24T07:10:45.472Z,100558.95
2022-09-24T07:13:14.309Z,100559.18
2022-09-24T07:15:43.046Z,100562.48
2022-09-24T07:18:12.240Z,100565.27
2022-09-24T07:20:40.577Z,100562.77
2022-09-24T07:23:10.564Z,100565.20
2022-09-24T07:25:39.219Z,100567.11
2022-09-24T07:28:15.672Z,100570.21
2022-09-24T07:30:43.531Z,100573.16
2022-09-24T07:33:11.308Z,100575.23
2022-09-24T07:35:40.230Z,100576.31
2022-09-24T07:38:12.339Z,100572.75
2022-09-24T07:40:40.413Z,100575.68
2022-09-24T07:43:13.982Z,100579.44
2022-09-24T07:45:42.899Z,100577.58
2022-09-24T07:48:11.336Z,100577.58
2022-09-24T07:50:41.022Z,100578.27
2022-09-24T07:53:11.955Z,100575.20
2022-09-24T07:55:40.815Z,100577.76
2022-09-24T07:58:12.260Z,100579.79
2022-09-24T08:00:40.514Z,100577.04
2022-09-24T08:03:08.411Z,100576.17
2022-09-24T08:05:37.299Z,100573.95
2022-09-24T08:08:05.022Z,100577.35
2022-09-24T08:10:32.787Z,100575.80
2022-09-24T08:13:04.293Z,100578.84
2022-09-24T08:15:32.149Z,100578.65
2022-09-24T08:18:04.104Z,100577.09
2022-09-24T08:20:37.113Z,100580.67
2022-09-24T08:23:08.078Z,100580.98
2022-09-24T08:25:35.919Z,100581.45
2022-09-24T08:28:08.244Z,100586.02
2022-09-24T08:30:36.295Z,100587.69
2022-09-24T08:33:07.332Z,100587.46
2022-09-24T08:35:36.157Z,100588.61
2022-09-24T08:38:04.065Z,100586.52
2022-09-24T08:40:39.126Z,100591.09
2022-09-24T08:43:07.782Z,100592.45
2022-09-24T08:46:06.390Z,100587.79
2022-09-24T08:48:39.425Z,100591.19
2022-09-24T08:51:13.804Z,100588.91
2022-09-24T08:54:07.135Z,100590.74
2022-09-24T08:56:39.257Z,100586.77
2022-09-24T08:59:15.181Z,100586.70
2022-09-24T09:02:15.214Z,100585.62
2022-09-24T09:05:05.280Z,100585.04
2022-09-24T09:08:27.224Z,100580.90
2022-09-24T09:11:02.326Z,100582.37
2022-09-24T09:13:58.819Z,100579.05
2022-09-24T09:16:31.152Z,100575.42
2022-09-24T09:19:06.245Z,100578.27
2022-09-24T09:21:42.823Z,100577.49
2022-09-24T09:24:23.470Z,100572.27
2022-09-24T09:26:55.643Z,100571.63
2022-09-24T09:29:28.182Z,100572.32
2022-09-24T09:32:27.479Z,100569.49
2022-09-24T09:35:10.348Z,100569.61
2022-09-24T09:38:15.479Z,100572.46
2022-09-24T09:40:46.240Z,100571.55
2022-09-24T09:43:14.627Z,100571.48
2022-09-24T09:46:07.845Z,100569.95
2022-09-24T09:48:48.706Z,100572.00
2022-09-24T09:51:22.724Z,100573.54
2022-09-24T09:53:55.160Z,100568.51
2022-09-24T09:56:26.586Z,100569.96
2022-09-24T09:59:07.457Z,100566.79
2022-09-24T10:01:37.989Z,100566.34
2022-09-24T10:04:05.900Z,100561.42
2022-09-24T10:06:36.028Z,100559.42
2022-09-24T10:09:21.662Z,100564.41
2022-09-24T10:11:49.713Z,100564.08
2022-09-24T10:14:21.812Z,100562.45
2022-09-24T10:16:54.730Z,100564.24
2022-09-24T10:19:28.110Z,100567.20
2022-09-24T10:21:57.904Z,100566.95
2022-09-24T10:24:28.188Z,100566.04
2022-09-24T10:26:56.034Z,100562.88
2022-09-24T10:29:52.977Z,100560.67
2022-09-24T10:32:23.696Z,100563.13
2022-09-24T10:35:19.706Z,100560.95
2022-09-24T10:37:52.164Z,100559.61
2022-09-24T10:40:25.880Z,100554.11
2022-09-24T10:42:59.345Z,100550.67
2022-09-24T10:45:38.146Z,100546.14
2022-09-24T10:48:19.068Z,100547.67
2022-09-24T10:51:00.122Z,100543.48
2022-09-24T10:53:55.171Z,100542.66
2022-09-24T10:56:51.813Z,100537.98
2022-09-24T10:59:43.774Z,100538.73
2022-09-24T11:02:14.276Z,100538.61
2022-09-24T11:04:45.982Z,100541.10
2022-09-24T11:07:22.931Z,100532.07
2022-09-24T11:10:05.576Z,100531.46
2022-09-24T11:13:21.750Z,100528.81
2022-09-24T11:16:15.019Z,100530.85
2022-09-24T11:19:03.327Z,100533.77
2022-09-24T11:21:40.195Z,100533.06
2022-09-24T11:24:30.943Z,100528.70
2022-09-24T11:27:01.351Z,100523.98
2022-09-24T11:30:06.715Z,100521.36
2022-09-24T11:32:54.615Z,100517.92
2022-09-24T11:35:45.254Z,100517.56
2022-09-24T11:38:23.173Z,100519.16
2022-09-24T11:41:15.102Z,100526.44
2022-09-24T11:44:11.464Z,100525.17
2022-09-24T11:46:57.167Z,100523.95
2022-09-24T11:49:43.359Z,100516.23
2022-09-24T11:52:56.485Z,100515.54
2022-09-24T11:55:34.439Z,100510.49
2022-09-24T11:58:46.502Z,100512.68
2022-09-24T12:01:25.598Z,100511.13
2022-09-24T12:04:00.121Z,100511.23
2022-09-24T12:06:37.207Z,100507.93
2022-09-24T12:09:13.706Z,100508.96
2022-09-24T12:12:09.887Z,100504.84
2022-09-24T12:14:52.514Z,100500.90
2022-09-24T12:17:33.376Z,100501.90
2022-09-24T12:20:17.011Z,100499.63
2022-09-24T12:22:49.203Z,100495.80
2022-09-24T12:25:17.575Z,100496.13
2022-09-24T12:27:46.706Z,100495.55
2022-09-24T12:31:02.269Z,100496.21
2022-09-24T12:33:41.979Z,100491.94
2022-09-24T12:36:21.155Z,100492.61
2022-09-24T12:38:55.216Z,100490.25
2022-09-24T12:41:32.537Z,100485.07
2022-09-24T12:44:16.134Z,100486.18
2022-09-24T12:46:59.467Z,100487.73
2022-09-24T12:49:27.334Z,100487.88
2022-09-24T12:52:01.394Z,100489.34
2022-09-24T12:54:38.215Z,100487.58
2022-09-24T12:57:09.155Z,100485.67
2022-09-24T12:59:48.466Z,100485.95
2022-09-24T13:02:45.344Z,100487.80
2022-09-24T13:05:22.314Z,100487.14
2022-09-24T13:07:57.859Z,100486.63
2022-09-24T13:10:35.097Z,100492.45
2022-09-24T13:13:16.019Z,100488.46
2022-09-24T13:15:44.795Z,100490.07
2022-09-24T13:18:12.563Z,100482.94
2022-09-24T13:20:49.308Z,100479.96
2022-09-24T13:23:19.750Z,100481.31
2022-09-24T13:26:05.292Z,100483.09
2022-09-24T13:28:58.521Z,100480.02
2022-09-24T13:31:29.276Z,100477.87
2022-09-24T13:34:22.063Z,100478.77
2022-09-24T13:36:52.691Z,100475.08
2022-09-24T13:39:25.360Z,100476.41
2022-09-24T13:42:14.800Z,100478.88
2022-09-24T13:44:46.047Z,100478.38
2022-09-24T13:47:39.199Z,100474.09
2022-09-24T13:50:22.105Z,100476.13
2022-09-24T13:52:57.731Z,100474.25
2022-09-24T13:55:46.850Z,100474.94
2022-09-24T13:58:28.022Z,100471.38
2022-09-24T14:00:58.564Z,100469.73
2022-09-24T14:03:36.934Z,100469.66
2022-09-24T14:06:16.377Z,100466.39
2022-09-24T14:08:47.188Z,100465.45
2022-09-24T14:11:21.401Z,100462.85
2022-09-24T14:13:49.373Z,100462.20
2022-09-24T14:16:20.048Z,100462.20
2022-09-24T14:18:49.066Z,100458.36
2022-09-24T14:21:46.651Z,100456.90
2022-09-24T14:24:27.628Z,100458.59
2022-09-24T14:26:57.247Z,100459.05
2022-09-24T14:29:30.039Z,100454.67
2022-09-24T14:32:01.918Z,100452.03
2022-09-24T14:34:44.191Z,100445.64
2022-09-24T14:37:17.500Z,100445.21
2022-09-24T14:39:48.824Z,100443.81
2022-09-24T14:42:26.208Z,100444.55
2022-09-24T14:44:55.465Z,100440.80
2022-09-24T14:47:33.055Z,100441.79
2022-09-24T14:50:01.188Z,100440.76
2022-09-24T14:52:39.641Z,100441.41
2022-09-24T14:55:15.409Z,100443.61
2022-09-24T14:57:48.196Z,100444.69
2022-09-24T15:00:29.983Z,100439.50
2022-09-24T15:03:03.136Z,100442.23
2022-09-24T15:05:31.327Z,100439.91
2022-09-24T15:08:22.455Z,100437.64
2022-09-24T15:11:02.265Z,100436.39
2022-09-24T15:13:32.853Z,100434.76
2022-09-24T15:16:26.572Z,100434.70
2022-09-24T15:19:19.617Z,100435.68
2022-09-24T15:21:49.472Z,100438.63
2022-09-24T15:24:18.415Z,100437.96
2022-09-24T15:27:15.403Z,100439.48
2022-09-24T15:29:43.210Z,100436.08
2022-09-24T15:32:19.522Z,100436.55
2022-09-24T15:34:48.176Z,100437.06
2022-09-24T15:37:20.157Z,100438.77
2022-09-24T15:39:49.850Z,100435.83
2022-09-24T15:42:19.732Z,100433.22
2022-09-24T15:44:47.913Z,100435.58
2022-09-24T15:47:15.766Z,100434.02
2022-09-24T15:49:44.184Z,100433.98
2022-09-24T15:52:29.805Z,100433.59
2022-09-24T15:55:03.138Z,100434.08
2022-09-24T15:57:30.988Z,100435.90
2022-09-24T15:59:58.859Z,100437.17
2022-09-24T16:02:32.164Z,100438.98
2022-09-24T16:05:03.676Z,100437.86
2022-09-24T16:07:32.228Z,100434.71
2022-09-24T16:09:59.948Z,100435.50
2022-09-24T16:12:28.417Z,100432.17
2022-09-24T16:14:59.321Z,100435.02
2022-09-24T16:17:28.553Z,100436.14
2022-09-24T16:19:56.523Z,100437.75
2022-09-24T16:22:24.946Z,100438.71
2022-09-24T16:24:54.184Z,100441.17
2022-09-24T16:27:22.477Z,100440.73
2022-09-24T16:29:50.237Z,100445.92
2022-09-24T16:32:17.952Z,100446.67
2022-09-24T16:34:45.770Z,100445.52
2022-09-24T16:37:14.773Z,100444.52
2022-09-24T16:39:42.461Z,100443.71
2022-09-24T16:42:10.259Z,100440.69
2022-09-24T16:44:37.981Z,100441.76
2022-09-24T16:47:05.809Z,100437.37
2022-09-24T16:49:34.941Z,100439.43
2022-09-24T16:52:03.014Z,100438.27
2022-09-24T16:54:31.376Z,100436.77
2022-09-24T16:56:59.203Z,100440.37
2022-09-24T16:59:26.906Z,100441.25
2022-09-24T17:01:54.843Z,100438.90
2022-09-24T17:04:22.821Z,100441.13
2022-09-24T17:06:54.454Z,100440.46
2022-09-24T17:09:40.969Z,100445.42
2022-09-24T17:12:11.078Z,100444.73
2022-09-24T17:14:38.892Z,100444.92
2022-09-24T17:17:06.994Z,100442.88
2022-09-24T17:19:34.706Z,100445.61
2022-09-24T17:22:02.558Z,100447.30
2022-09-24T17:24:31.883Z,100448.83
2022-09-24T17:27:00.370Z,100446.76
2022-09-24T17:29:31.749Z,100452.55
2022-09-24T17:31:59.838Z,100454.41
2022-09-24T17:34:27.705Z,100460.02
2022-09-24T17:36:55.439Z,100458.99
2022-09-24T17:39:23.323Z,100459.83
2022-09-24T17:41:51.052Z,100456.91
2022-09-24T17:44:18.861Z,100455.37
2022-09-24T17:46:46.686Z,100455.34
2022-09-24T17:49:15.701Z,100454.64
2022-09-24T17:51:45.276Z,100450.86
2022-09-24T17:54:15.999Z,100451.35
2022-09-24T17:56:43.768Z,100454.08
2022-09-24T17:59:13.343Z,100452.86
2022-09-24T18:01:43.605Z,100457.27
2022-09-24T18:04:16.728Z,100453.32
2022-09-24T18:06:47.063Z,100453.81
2022-09-24T18:09:16.478Z,100456.67
2022-09-24T18:11:50.091Z,100455.46
2022-09-24T18:14:21.114Z,100453.20
2022-09-24T18:16:49.841Z,100454.38
2022-09-24T18:19:18.486Z,100456.03
2022-09-24T18:21:48.545Z,100454.61
2022-09-24T18:24:16.721Z,100455.77
2022-09-24T18:26:47.412Z,100456.40
2022-09-24T18:29:17.749Z,100459.77
2022-09-24T18:31:45.754Z,100455.98
2022-09-24T18:34:15.772Z,100456.27
2022-09-24T18:36:44.968Z,100461.50
2022-09-24T18:39:17.640Z,100462.48
2022-09-24T18:41:48.156Z,100464.30
2022-09-24T18:44:16.052Z,100462.69
2022-09-24T18:46:45.710Z,100466.38
2022-09-24T18:49:13.526Z,100461.92
2022-09-24T18:51:41.402Z,100465.63
2022-09-24T18:54:13.102Z,100470.52
2022-09-24T18:56:42.869Z,100468.96
2022-09-24T18:59:13.585Z,100474.34
2022-09-24T19:01:42.546Z,100474.30
2022-09-24T19:04:11.823Z,100469.31
2022-09-24T19:06:42.840Z,100470.80
2022-09-24T19:09:13.699Z,100474.68
2022-09-24T19:11:42.165Z,100476.16
2022-09-24T19:14:12.223Z,100476.30
2022-09-24T19:16:40.405Z,100474.56
2022-09-24T19:19:09.282Z,100469.45
2022-09-24T19:21:37.815Z,100471.14
2022-09-24T19:24:06.998Z,100470.41
2022-09-24T19:26:36.761Z,100472.23
2022-09-24T19:29:05.128Z,100469.65
2022-09-24T19:31:36.673Z,100469.27
2022-09-24T19:34:06.755Z,100469.91
2022-09-24T19:36:45.063Z,100468.34
2022-09-24T19:39:16.876Z,100465.26
2022-09-24T19:41:45.440Z,100464.89
2022-09-24T19:44:14.021Z,100466.20
2022-09-24T19:46:42.396Z,100463.45
2022-09-24T19:49:10.211Z,100465.13
2022-09-24T19:51:38.042Z,100461.19
2022-09-24T19:54:07.806Z,100462.35
2022-09-24T19:56:36.486Z,100460.98
2022-09-24T19:59:05.530Z,100462.32
2022-09-24T20:01:34.492Z,100462.28
2022-09-24T20:04:06.120Z,100462.61
2022-09-24T20:06:36.977Z,100459.35
2022-09-24T20:09:06.081Z,100460.19
2022-09-24T20:11:34.119Z,100457.80
2022-09-24T20:14:02.717Z,100458.14
2022-09-24T20:16:33.650Z,100459.98
2022-09-24T20:19:02.573Z,100458.97
2022-09-24T20:21:35.183Z,100459.16
2022-09-24T20:24:04.480Z,100454.92
2022-09-24T20:26:51.342Z,100450.01
2022-09-24T20:29:21.727Z,100449.52
2022-09-24T20:31:53.086Z,100450.70
2022-09-24T20:34:23.988Z,100449.86
2022-09-24T20:36:52.688Z,100444.61
2022-09-24T20:39:21.225Z,100443.94
2022-09-24T20:41:49.573Z,100446.48
2022-09-24T20:44:18.180Z,100445.81
2022-09-24T20:46:45.940Z,100449.55
2022-09-24T20:49:22.748Z,100451.57
2022-09-24T20:51:56.488Z,100453.25
2022-09-24T20:54:26.939Z,100455.27
2022-09-24T20:56:55.018Z,100459.85
2022-09-24T20:59:23.018Z,100460.54
2022-09-24T21:01:50.960Z,100462.56
2022-09-24T21:04:20.396Z,100464.25
2022-09-24T21:06:49.037Z,100462.52
2022-09-24T21:09:17.425Z,100461.28
2022-09-24T21:11:45.178Z,100456.50
2022-09-24T21:14:14.802Z,100457.48
2022-09-24T21:16:42.568Z,100459.52
2022-09-24T21:19:12.545Z,100457.79
2022-09-24T21:21:40.839Z,100455.38
2022-09-24T21:24:12.699Z,100458.43
2022-09-24T21:26:41.703Z,100457.04
2022-09-24T21:29:20.847Z,100455.48
2022-09-24T21:31:49.135Z,100461.36
2022-09-24T21:34:21.028Z,100455.05
2022-09-24T21:36:49.613Z,100454.02
2022-09-24T21:39:26.699Z,100454.65
2022-09-24T21:41:59.745Z,100451.55
2022-09-24T21:44:30.485Z,100447.29
2022-09-24T21:46:58.242Z,100448.61
2022-09-24T21:49:26.262Z,100453.62
2022-09-24T21:51:55.704Z,100452.04
2022-09-24T21:54:23.662Z,100455.06
2022-09-24T21:56:54.574Z,100454.34
2022-09-24T21:59:41.244Z,100452.27
2022-09-24T22:02:10.285Z,100451.58
2022-09-24T22:04:38.192Z,100450.02
2022-09-24T22:07:06.190Z,100447.43
2022-09-24T22:09:34.146Z,100447.23
2022-09-24T22:12:04.622Z,100445.02
2022-09-24T22:14:34.857Z,100445.00
2022-09-24T22:17:04.189Z,100447.88
2022-09-24T22:19:32.130Z,100444.13
2022-09-24T22:21:59.895Z,100445.98
2022-09-24T22:24:27.724Z,100446.31
2022-09-24T22:26:55.444Z,100444.95
2022-09-24T22:29:23.212Z,100444.27
2022-09-24T22:31:51.058Z,100442.42
2022-09-24T22:34:37.471Z,100442.75
2022-09-24T22:37:06.473Z,100437.15
2022-09-24T22:39:35.160Z,100436.80
2022-09-24T22:42:02.956Z,100435.58
2022-09-24T22:44:30.779Z,100432.31
2022-09-24T22:46:58.560Z,100429.74
2022-09-24T22:49:26.308Z,100420.72
2022-09-24T22:51:54.056Z,100420.70
2022-09-24T22:54:21.908Z,100417.27
2022-09-24T22:56:49.639Z,100416.38
2022-09-24T22:59:17.337Z,100413.95
2022-09-24T23:01:45.214Z,100411.05
2022-09-24T23:04:14.950Z,100411.86
2022-09-24T23:06:43.805Z,100407.77
2022-09-24T23:09:12.051Z,100410.08
2022-09-24T23:11:40.320Z,100411.71
2022-09-24T23:14:14.259Z,100411.16
2022-09-24T23:16:43.605Z,100411.78
2022-09-24T23:19:17.750Z,100415.98
2022-09-24T23:21:45.889Z,100416.95
2022-09-24T23:24:17.290Z,100415.41
2022-09-24T23:26:46.091Z,100415.70
2022-09-24T23:29:14.993Z,100416.89
2022-09-24T23:31:42.979Z,100417.00
2022-09-24T23:34:13.054Z,100418.30
2022-09-24T23:36:41.751Z,100420.61
2022-09-24T23:39:09.592Z,100420.88
2022-09-24T23:41:37.720Z,100422.16
2022-09-24T23:44:06.079Z,100420.60
2022-09-24T23:46:34.014Z,100418.00
2022-09-24T23:49:02.716Z,100417.45
2022-09-24T23:51:30.842Z,100414.70
2022-09-24T23:53:58.534Z,100414.85
2022-09-24T23:56:26.340Z,100412.63
2022-09-24T23:58:55.111Z,100412.41
